sensor_id;sensor_type;location;lat;lon;timestamp;temperature;humidity
35559;DHT22;21661;50.794;-1.066;2024-01-06T00:01:11;7.10;99.90
35559;DHT22;21661;50.794;-1.066;2024-01-06T00:03:37;7.20;99.90
35559;DHT22;21661;50.794;-1.066;2024-01-06T00:06:03;7.20;99.90
35559;DHT22;21661;50.794;-1.066;2024-01-06T00:08:29;7.10;99.90
35559;DHT22;21661;50.794;-1.066;2024-01-06T00:10:54;7.10;99.90
35559;DHT22;21661;50.794;-1.066;2024-01-06T00:13:23;7.10;99.90
35559;DHT22;21661;50.794;-1.066;2024-01-06T00:15:49;7.00;99.90
35559;DHT22;21661;50.794;-1.066;2024-01-06T00:18:15;7.00;99.90
35559;DHT22;21661;50.794;-1.066;2024-01-06T00:20:40;7.00;99.90
35559;DHT22;21661;50.794;-1.066;2024-01-06T00:23:06;7.00;99.90
35559;DHT22;21661;50.794;-1.066;2024-01-06T00:25:34;7.00;99.90
35559;DHT22;21661;50.794;-1.066;2024-01-06T00:28:00;7.00;99.90
35559;DHT22;21661;50.794;-1.066;2024-01-06T00:30:25;7.00;99.90
35559;DHT22;21661;50.794;-1.066;2024-01-06T00:32:51;7.10;99.90
35559;DHT22;21661;50.794;-1.066;2024-01-06T00:35:20;7.00;99.90
35559;DHT22;21661;50.794;-1.066;2024-01-06T00:37:45;7.00;99.90
35559;DHT22;21661;50.794;-1.066;2024-01-06T00:40:11;7.00;99.90
35559;DHT22;21661;50.794;-1.066;2024-01-06T00:42:37;7.00;99.90
35559;DHT22;21661;50.794;-1.066;2024-01-06T00:45:03;7.00;99.90
35559;DHT22;21661;50.794;-1.066;2024-01-06T00:47:29;7.00;99.90
35559;DHT22;21661;50.794;-1.066;2024-01-06T00:49:55;6.90;99.90
35559;DHT22;21661;50.794;-1.066;2024-01-06T00:52:20;6.90;99.90
35559;DHT22;21661;50.794;-1.066;2024-01-06T00:54:46;6.90;99.90
35559;DHT22;21661;50.794;-1.066;2024-01-06T00:57:12;6.80;99.90
35559;DHT22;21661;50.794;-1.066;2024-01-06T00:59:38;6.90;99.90
35559;DHT22;21661;50.794;-1.066;2024-01-06T01:02:04;7.00;99.90
35559;DHT22;21661;50.794;-1.066;2024-01-06T01:04:29;6.90;99.90
35559;DHT22;21661;50.794;-1.066;2024-01-06T01:06:55;7.00;99.90
35559;DHT22;21661;50.794;-1.066;2024-01-06T01:09:20;6.90;99.90
35559;DHT22;21661;50.794;-1.066;2024-01-06T01:11:46;6.90;99.90
35559;DHT22;21661;50.794;-1.066;2024-01-06T01:14:12;6.90;99.90
35559;DHT22;21661;50.794;-1.066;2024-01-06T01:16:37;6.90;99.90
35559;DHT22;21661;50.794;-1.066;2024-01-06T01:19:03;6.90;99.90
35559;DHT22;21661;50.794;-1.066;2024-01-06T01:21:29;6.80;99.90
35559;DHT22;21661;50.794;-1.066;2024-01-06T01:23:54;6.80;99.90
35559;DHT22;21661;50.794;-1.066;2024-01-06T01:26:20;6.80;99.90
35559;DHT22;21661;50.794;-1.066;2024-01-06T01:28:45;6.80;99.90
35559;DHT22;21661;50.794;-1.066;2024-01-06T01:31:12;6.80;99.90
35559;DHT22;21661;50.794;-1.066;2024-01-06T01:33:38;6.70;99.90
35559;DHT22;21661;50.794;-1.066;2024-01-06T01:36:04;6.70;99.90
35559;DHT22;21661;50.794;-1.066;2024-01-06T01:38:30;6.70;99.90
35559;DHT22;21661;50.794;-1.066;2024-01-06T01:40:56;6.70;99.90
35559;DHT22;21661;50.794;-1.066;2024-01-06T01:43:22;6.70;99.90
35559;DHT22;21661;50.794;-1.066;2024-01-06T01:45:51;6.70;99.90
35559;DHT22;21661;50.794;-1.066;2024-01-06T01:48:22;6.70;99.90
35559;DHT22;21661;50.794;-1.066;2024-01-06T01:50:48;6.70;99.90
35559;DHT22;21661;50.794;-1.066;2024-01-06T01:53:14;6.70;99.90
35559;DHT22;21661;50.794;-1.066;2024-01-06T01:55:40;6.70;99.90
35559;DHT22;21661;50.794;-1.066;2024-01-06T01:58:08;6.60;99.90
35559;DHT22;21661;50.794;-1.066;2024-01-06T02:00:34;6.60;99.90
35559;DHT22;21661;50.794;-1.066;2024-01-06T02:03:01;6.60;99.90
35559;DHT22;21661;50.794;-1.066;2024-01-06T02:05:27;6.70;99.90
35559;DHT22;21661;50.794;-1.066;2024-01-06T02:07:53;6.60;99.90
35559;DHT22;21661;50.794;-1.066;2024-01-06T02:10:18;6.60;99.90
35559;DHT22;21661;50.794;-1.066;2024-01-06T02:12:44;6.60;99.90
35559;DHT22;21661;50.794;-1.066;2024-01-06T02:15:10;6.60;99.90
35559;DHT22;21661;50.794;-1.066;2024-01-06T02:17:35;6.60;99.90
35559;DHT22;21661;50.794;-1.066;2024-01-06T02:20:01;6.60;99.90
35559;DHT22;21661;50.794;-1.066;2024-01-06T02:22:26;6.60;99.90
35559;DHT22;21661;50.794;-1.066;2024-01-06T02:24:52;6.60;99.90
35559;DHT22;21661;50.794;-1.066;2024-01-06T02:27:18;6.60;99.90
35559;DHT22;21661;50.794;-1.066;2024-01-06T02:29:44;6.50;99.90
35559;DHT22;21661;50.794;-1.066;2024-01-06T02:32:10;6.50;99.90
35559;DHT22;21661;50.794;-1.066;2024-01-06T02:34:35;6.50;99.90
35559;DHT22;21661;50.794;-1.066;2024-01-06T02:37:03;6.50;99.90
35559;DHT22;21661;50.794;-1.066;2024-01-06T02:39:29;6.50;99.90
35559;DHT22;21661;50.794;-1.066;2024-01-06T02:41:54;6.50;99.90
35559;DHT22;21661;50.794;-1.066;2024-01-06T02:44:20;6.50;99.90
35559;DHT22;21661;50.794;-1.066;2024-01-06T02:46:46;6.50;99.90
35559;DHT22;21661;50.794;-1.066;2024-01-06T02:49:11;6.50;99.90
35559;DHT22;21661;50.794;-1.066;2024-01-06T02:51:37;6.50;99.90
35559;DHT22;21661;50.794;-1.066;2024-01-06T02:54:03;6.50;99.90
35559;DHT22;21661;50.794;-1.066;2024-01-06T02:56:29;6.50;99.90
35559;DHT22;21661;50.794;-1.066;2024-01-06T02:58:54;6.50;99.90
35559;DHT22;21661;50.794;-1.066;2024-01-06T03:01:20;6.50;99.90
35559;DHT22;21661;50.794;-1.066;2024-01-06T03:03:45;6.50;99.90
35559;DHT22;21661;50.794;-1.066;2024-01-06T03:06:11;6.50;99.90
35559;DHT22;21661;50.794;-1.066;2024-01-06T03:08:37;6.50;99.90
35559;DHT22;21661;50.794;-1.066;2024-01-06T03:11:03;6.50;99.90
35559;DHT22;21661;50.794;-1.066;2024-01-06T03:13:30;6.50;99.90
35559;DHT22;21661;50.794;-1.066;2024-01-06T03:15:56;6.60;99.90
35559;DHT22;21661;50.794;-1.066;2024-01-06T03:18:22;6.60;99.90
35559;DHT22;21661;50.794;-1.066;2024-01-06T03:20:47;6.60;99.90
35559;DHT22;21661;50.794;-1.066;2024-01-06T03:23:13;6.60;99.90
35559;DHT22;21661;50.794;-1.066;2024-01-06T03:25:38;6.60;99.90
35559;DHT22;21661;50.794;-1.066;2024-01-06T03:28:04;6.60;99.90
35559;DHT22;21661;50.794;-1.066;2024-01-06T03:30:30;6.60;99.90
35559;DHT22;21661;50.794;-1.066;2024-01-06T03:32:55;6.60;99.90
35559;DHT22;21661;50.794;-1.066;2024-01-06T03:35:21;6.50;99.90
35559;DHT22;21661;50.794;-1.066;2024-01-06T03:37:46;6.60;99.90
35559;DHT22;21661;50.794;-1.066;2024-01-06T03:40:12;6.60;99.90
35559;DHT22;21661;50.794;-1.066;2024-01-06T03:42:38;6.50;99.90
35559;DHT22;21661;50.794;-1.066;2024-01-06T03:45:04;6.60;99.90
35559;DHT22;21661;50.794;-1.066;2024-01-06T03:47:30;6.60;99.90
35559;DHT22;21661;50.794;-1.066;2024-01-06T03:49:55;6.60;99.90
35559;DHT22;21661;50.794;-1.066;2024-01-06T03:52:21;6.60;99.90
35559;DHT22;21661;50.794;-1.066;2024-01-06T03:54:47;6.60;99.90
35559;DHT22;21661;50.794;-1.066;2024-01-06T03:57:12;6.60;99.90
35559;DHT22;21661;50.794;-1.066;2024-01-06T03:59:38;6.60;99.90
35559;DHT22;21661;50.794;-1.066;2024-01-06T04:02:04;6.60;99.90
35559;DHT22;21661;50.794;-1.066;2024-01-06T04:04:29;6.50;99.90
35559;DHT22;21661;50.794;-1.066;2024-01-06T04:06:55;6.50;99.90
35559;DHT22;21661;50.794;-1.066;2024-01-06T04:09:20;6.50;99.90
35559;DHT22;21661;50.794;-1.066;2024-01-06T04:11:46;6.40;99.90
35559;DHT22;21661;50.794;-1.066;2024-01-06T04:14:12;6.40;99.90
35559;DHT22;21661;50.794;-1.066;2024-01-06T04:16:37;6.40;99.90
35559;DHT22;21661;50.794;-1.066;2024-01-06T04:19:03;6.30;99.90
35559;DHT22;21661;50.794;-1.066;2024-01-06T04:21:31;6.30;99.90
35559;DHT22;21661;50.794;-1.066;2024-01-06T04:23:57;6.30;99.90
35559;DHT22;21661;50.794;-1.066;2024-01-06T04:26:23;6.30;99.90
35559;DHT22;21661;50.794;-1.066;2024-01-06T04:28:48;6.30;99.90
35559;DHT22;21661;50.794;-1.066;2024-01-06T04:31:14;6.30;99.90
35559;DHT22;21661;50.794;-1.066;2024-01-06T04:33:40;6.30;99.90
35559;DHT22;21661;50.794;-1.066;2024-01-06T04:36:06;6.20;99.90
35559;DHT22;21661;50.794;-1.066;2024-01-06T04:38:32;6.30;99.90
35559;DHT22;21661;50.794;-1.066;2024-01-06T04:40:58;6.30;99.90
35559;DHT22;21661;50.794;-1.066;2024-01-06T04:43:23;6.30;99.90
35559;DHT22;21661;50.794;-1.066;2024-01-06T04:45:49;6.20;99.90
35559;DHT22;21661;50.794;-1.066;2024-01-06T04:48:16;6.30;99.90
35559;DHT22;21661;50.794;-1.066;2024-01-06T04:50:41;6.30;99.90
35559;DHT22;21661;50.794;-1.066;2024-01-06T04:53:07;6.30;99.90
35559;DHT22;21661;50.794;-1.066;2024-01-06T04:55:33;6.30;99.90
35559;DHT22;21661;50.794;-1.066;2024-01-06T04:57:58;6.40;99.90
35559;DHT22;21661;50.794;-1.066;2024-01-06T05:00:24;6.40;99.90
35559;DHT22;21661;50.794;-1.066;2024-01-06T05:02:50;6.40;99.90
35559;DHT22;21661;50.794;-1.066;2024-01-06T05:05:16;6.50;99.90
35559;DHT22;21661;50.794;-1.066;2024-01-06T05:07:42;6.50;99.90
35559;DHT22;21661;50.794;-1.066;2024-01-06T05:10:08;6.50;99.90
35559;DHT22;21661;50.794;-1.066;2024-01-06T05:12:33;6.50;99.90
35559;DHT22;21661;50.794;-1.066;2024-01-06T05:14:59;6.50;99.90
35559;DHT22;21661;50.794;-1.066;2024-01-06T05:17:25;6.50;99.90
35559;DHT22;21661;50.794;-1.066;2024-01-06T05:19:50;6.50;99.90
35559;DHT22;21661;50.794;-1.066;2024-01-06T05:22:16;6.40;99.90
35559;DHT22;21661;50.794;-1.066;2024-01-06T05:24:42;6.40;99.90
35559;DHT22;21661;50.794;-1.066;2024-01-06T05:27:07;6.40;99.90
35559;DHT22;21661;50.794;-1.066;2024-01-06T05:29:33;6.40;99.90
35559;DHT22;21661;50.794;-1.066;2024-01-06T05:31:59;6.40;99.90
35559;DHT22;21661;50.794;-1.066;2024-01-06T05:34:24;6.40;99.90
35559;DHT22;21661;50.794;-1.066;2024-01-06T05:36:50;6.40;99.90
35559;DHT22;21661;50.794;-1.066;2024-01-06T05:39:17;6.40;99.90
35559;DHT22;21661;50.794;-1.066;2024-01-06T05:41:42;6.30;99.90
35559;DHT22;21661;50.794;-1.066;2024-01-06T05:44:08;6.30;99.90
35559;DHT22;21661;50.794;-1.066;2024-01-06T05:46:34;6.30;99.90
35559;DHT22;21661;50.794;-1.066;2024-01-06T05:49:00;6.30;99.90
35559;DHT22;21661;50.794;-1.066;2024-01-06T05:51:25;6.30;99.90
35559;DHT22;21661;50.794;-1.066;2024-01-06T05:53:51;6.20;99.90
35559;DHT22;21661;50.794;-1.066;2024-01-06T05:56:26;6.20;99.90
35559;DHT22;21661;50.794;-1.066;2024-01-06T05:58:53;6.20;99.90
35559;DHT22;21661;50.794;-1.066;2024-01-06T06:01:19;6.10;99.90
35559;DHT22;21661;50.794;-1.066;2024-01-06T06:03:46;6.10;99.90
35559;DHT22;21661;50.794;-1.066;2024-01-06T06:06:13;6.10;99.90
35559;DHT22;21661;50.794;-1.066;2024-01-06T06:08:40;6.00;99.90
35559;DHT22;21661;50.794;-1.066;2024-01-06T06:11:06;6.00;99.90
35559;DHT22;21661;50.794;-1.066;2024-01-06T06:13:45;6.10;99.90
35559;DHT22;21661;50.794;-1.066;2024-01-06T06:16:11;6.00;99.90
35559;DHT22;21661;50.794;-1.066;2024-01-06T06:18:40;6.00;99.90
35559;DHT22;21661;50.794;-1.066;2024-01-06T06:21:06;6.10;99.90
35559;DHT22;21661;50.794;-1.066;2024-01-06T06:23:33;6.10;99.90
35559;DHT22;21661;50.794;-1.066;2024-01-06T06:26:06;6.10;99.90
35559;DHT22;21661;50.794;-1.066;2024-01-06T06:28:32;6.10;99.90
35559;DHT22;21661;50.794;-1.066;2024-01-06T06:30:57;6.10;99.90
35559;DHT22;21661;50.794;-1.066;2024-01-06T06:33:23;6.10;99.90
35559;DHT22;21661;50.794;-1.066;2024-01-06T06:35:48;6.20;99.90
35559;DHT22;21661;50.794;-1.066;2024-01-06T06:38:14;6.20;99.90
35559;DHT22;21661;50.794;-1.066;2024-01-06T06:40:40;6.10;99.90
35559;DHT22;21661;50.794;-1.066;2024-01-06T06:43:05;6.10;99.90
35559;DHT22;21661;50.794;-1.066;2024-01-06T06:45:31;6.10;99.90
35559;DHT22;21661;50.794;-1.066;2024-01-06T06:47:57;6.00;99.90
35559;DHT22;21661;50.794;-1.066;2024-01-06T06:50:23;6.00;99.90
35559;DHT22;21661;50.794;-1.066;2024-01-06T06:52:49;6.00;99.90
35559;DHT22;21661;50.794;-1.066;2024-01-06T06:55:15;6.00;99.90
35559;DHT22;21661;50.794;-1.066;2024-01-06T06:57:40;6.00;99.90
35559;DHT22;21661;50.794;-1.066;2024-01-06T07:00:06;6.00;99.90
35559;DHT22;21661;50.794;-1.066;2024-01-06T07:02:35;6.00;99.90
35559;DHT22;21661;50.794;-1.066;2024-01-06T07:05:01;6.10;99.90
35559;DHT22;21661;50.794;-1.066;2024-01-06T07:07:26;6.10;99.90
35559;DHT22;21661;50.794;-1.066;2024-01-06T07:09:52;6.10;99.90
35559;DHT22;21661;50.794;-1.066;2024-01-06T07:12:18;6.00;99.90
35559;DHT22;21661;50.794;-1.066;2024-01-06T07:14:43;6.00;99.90
35559;DHT22;21661;50.794;-1.066;2024-01-06T07:17:09;6.00;99.90
35559;DHT22;21661;50.794;-1.066;2024-01-06T07:19:38;6.10;99.90
35559;DHT22;21661;50.794;-1.066;2024-01-06T07:22:04;6.00;99.90
35559;DHT22;21661;50.794;-1.066;2024-01-06T07:24:30;6.00;99.90
35559;DHT22;21661;50.794;-1.066;2024-01-06T07:26:56;6.10;99.90
35559;DHT22;21661;50.794;-1.066;2024-01-06T07:29:21;6.20;99.90
35559;DHT22;21661;50.794;-1.066;2024-01-06T07:31:47;6.20;99.90
35559;DHT22;21661;50.794;-1.066;2024-01-06T07:34:13;6.20;99.90
35559;DHT22;21661;50.794;-1.066;2024-01-06T07:36:38;6.20;99.90
35559;DHT22;21661;50.794;-1.066;2024-01-06T07:39:05;6.20;99.90
35559;DHT22;21661;50.794;-1.066;2024-01-06T07:41:31;6.30;99.90
35559;DHT22;21661;50.794;-1.066;2024-01-06T07:43:57;6.30;99.90
35559;DHT22;21661;50.794;-1.066;2024-01-06T07:46:24;6.30;99.90
35559;DHT22;21661;50.794;-1.066;2024-01-06T07:48:49;6.30;99.90
35559;DHT22;21661;50.794;-1.066;2024-01-06T07:51:15;6.20;99.90
35559;DHT22;21661;50.794;-1.066;2024-01-06T07:53:41;6.20;99.90
35559;DHT22;21661;50.794;-1.066;2024-01-06T07:56:07;6.10;99.90
35559;DHT22;21661;50.794;-1.066;2024-01-06T07:58:34;6.10;99.90
35559;DHT22;21661;50.794;-1.066;2024-01-06T08:00:59;6.10;99.90
35559;DHT22;21661;50.794;-1.066;2024-01-06T08:03:25;6.10;99.90
35559;DHT22;21661;50.794;-1.066;2024-01-06T08:05:51;6.10;99.90
35559;DHT22;21661;50.794;-1.066;2024-01-06T08:08:16;6.20;99.90
35559;DHT22;21661;50.794;-1.066;2024-01-06T08:10:44;6.10;99.90
35559;DHT22;21661;50.794;-1.066;2024-01-06T08:13:09;6.20;99.90
35559;DHT22;21661;50.794;-1.066;2024-01-06T08:15:35;6.20;99.90
35559;DHT22;21661;50.794;-1.066;2024-01-06T08:18:01;6.20;99.90
35559;DHT22;21661;50.794;-1.066;2024-01-06T08:20:26;6.20;99.90
35559;DHT22;21661;50.794;-1.066;2024-01-06T08:22:52;6.30;99.90
35559;DHT22;21661;50.794;-1.066;2024-01-06T08:25:18;6.20;99.90
35559;DHT22;21661;50.794;-1.066;2024-01-06T08:27:44;6.30;99.90
35559;DHT22;21661;50.794;-1.066;2024-01-06T08:30:09;6.30;99.90
35559;DHT22;21661;50.794;-1.066;2024-01-06T08:32:35;6.30;99.90
35559;DHT22;21661;50.794;-1.066;2024-01-06T08:35:01;6.30;99.90
35559;DHT22;21661;50.794;-1.066;2024-01-06T08:37:26;6.30;99.90
35559;DHT22;21661;50.794;-1.066;2024-01-06T08:39:52;6.20;99.90
35559;DHT22;21661;50.794;-1.066;2024-01-06T08:42:19;6.30;99.90
35559;DHT22;21661;50.794;-1.066;2024-01-06T08:44:45;6.30;99.90
35559;DHT22;21661;50.794;-1.066;2024-01-06T08:47:11;6.30;99.90
35559;DHT22;21661;50.794;-1.066;2024-01-06T08:49:37;6.20;99.90
35559;DHT22;21661;50.794;-1.066;2024-01-06T08:52:03;6.20;99.90
35559;DHT22;21661;50.794;-1.066;2024-01-06T08:54:29;6.20;99.90
35559;DHT22;21661;50.794;-1.066;2024-01-06T08:56:55;6.20;99.90
35559;DHT22;21661;50.794;-1.066;2024-01-06T08:59:20;6.30;99.90
35559;DHT22;21661;50.794;-1.066;2024-01-06T09:01:46;6.30;99.90
35559;DHT22;21661;50.794;-1.066;2024-01-06T09:04:11;6.40;99.90
35559;DHT22;21661;50.794;-1.066;2024-01-06T09:06:38;6.40;99.90
35559;DHT22;21661;50.794;-1.066;2024-01-06T09:09:03;6.50;99.90
35559;DHT22;21661;50.794;-1.066;2024-01-06T09:11:29;6.40;99.90
35559;DHT22;21661;50.794;-1.066;2024-01-06T09:13:55;6.30;99.90
35559;DHT22;21661;50.794;-1.066;2024-01-06T09:16:20;6.30;99.90
35559;DHT22;21661;50.794;-1.066;2024-01-06T09:18:46;6.40;99.90
35559;DHT22;21661;50.794;-1.066;2024-01-06T09:21:11;6.50;99.90
35559;DHT22;21661;50.794;-1.066;2024-01-06T09:23:37;6.50;99.90
35559;DHT22;21661;50.794;-1.066;2024-01-06T09:26:03;6.50;99.90
35559;DHT22;21661;50.794;-1.066;2024-01-06T09:28:28;6.60;99.90
35559;DHT22;21661;50.794;-1.066;2024-01-06T09:30:54;6.70;99.90
35559;DHT22;21661;50.794;-1.066;2024-01-06T09:33:22;6.70;99.90
35559;DHT22;21661;50.794;-1.066;2024-01-06T09:35:47;6.70;99.90
35559;DHT22;21661;50.794;-1.066;2024-01-06T09:38:13;6.70;99.90
35559;DHT22;21661;50.794;-1.066;2024-01-06T09:40:43;6.70;99.90
35559;DHT22;21661;50.794;-1.066;2024-01-06T09:43:10;6.70;99.90
35559;DHT22;21661;50.794;-1.066;2024-01-06T09:45:37;6.70;99.90
35559;DHT22;21661;50.794;-1.066;2024-01-06T09:48:11;6.80;99.90
35559;DHT22;21661;50.794;-1.066;2024-01-06T09:50:42;6.80;99.90
35559;DHT22;21661;50.794;-1.066;2024-01-06T09:53:11;6.80;99.90
35559;DHT22;21661;50.794;-1.066;2024-01-06T09:55:38;6.80;99.90
35559;DHT22;21661;50.794;-1.066;2024-01-06T09:58:04;6.90;99.90
35559;DHT22;21661;50.794;-1.066;2024-01-06T10:00:31;6.90;99.90
35559;DHT22;21661;50.794;-1.066;2024-01-06T10:02:57;6.90;99.90
35559;DHT22;21661;50.794;-1.066;2024-01-06T10:05:23;6.90;99.90
35559;DHT22;21661;50.794;-1.066;2024-01-06T10:07:49;7.00;99.90
35559;DHT22;21661;50.794;-1.066;2024-01-06T10:10:15;7.00;99.90
35559;DHT22;21661;50.794;-1.066;2024-01-06T10:12:41;7.00;99.90
35559;DHT22;21661;50.794;-1.066;2024-01-06T10:15:08;7.00;99.90
35559;DHT22;21661;50.794;-1.066;2024-01-06T10:17:40;7.00;99.90
35559;DHT22;21661;50.794;-1.066;2024-01-06T10:20:11;7.10;99.90
35559;DHT22;21661;50.794;-1.066;2024-01-06T10:22:37;7.10;99.90
35559;DHT22;21661;50.794;-1.066;2024-01-06T10:25:07;7.10;99.90
35559;DHT22;21661;50.794;-1.066;2024-01-06T10:27:38;7.30;99.90
35559;DHT22;21661;50.794;-1.066;2024-01-06T10:30:08;7.20;99.90
35559;DHT22;21661;50.794;-1.066;2024-01-06T10:32:35;7.20;99.90
35559;DHT22;21661;50.794;-1.066;2024-01-06T10:35:02;7.20;99.90
35559;DHT22;21661;50.794;-1.066;2024-01-06T10:37:29;7.30;99.90
35559;DHT22;21661;50.794;-1.066;2024-01-06T10:40:14;7.30;99.90
35559;DHT22;21661;50.794;-1.066;2024-01-06T10:42:42;7.20;99.90
35559;DHT22;21661;50.794;-1.066;2024-01-06T10:45:09;7.20;99.90
35559;DHT22;21661;50.794;-1.066;2024-01-06T10:47:40;7.20;99.90
35559;DHT22;21661;50.794;-1.066;2024-01-06T10:50:07;7.20;99.90
35559;DHT22;21661;50.794;-1.066;2024-01-06T10:52:34;7.20;99.90
35559;DHT22;21661;50.794;-1.066;2024-01-06T10:55:01;7.20;99.90
35559;DHT22;21661;50.794;-1.066;2024-01-06T10:57:29;7.10;99.90
35559;DHT22;21661;50.794;-1.066;2024-01-06T10:59:58;7.10;99.90
35559;DHT22;21661;50.794;-1.066;2024-01-06T11:02:25;7.10;99.90
35559;DHT22;21661;50.794;-1.066;2024-01-06T11:04:51;7.20;99.90
35559;DHT22;21661;50.794;-1.066;2024-01-06T11:07:18;7.20;99.90
35559;DHT22;21661;50.794;-1.066;2024-01-06T11:10:06;7.30;99.90
35559;DHT22;21661;50.794;-1.066;2024-01-06T11:12:34;7.20;99.90
35559;DHT22;21661;50.794;-1.066;2024-01-06T11:15:00;7.30;99.90
35559;DHT22;21661;50.794;-1.066;2024-01-06T11:17:51;7.30;99.90
35559;DHT22;21661;50.794;-1.066;2024-01-06T11:20:26;7.40;99.90
35559;DHT22;21661;50.794;-1.066;2024-01-06T11:23:19;7.50;99.90
35559;DHT22;21661;50.794;-1.066;2024-01-06T11:25:46;7.50;99.90
35559;DHT22;21661;50.794;-1.066;2024-01-06T11:28:11;7.60;99.90
35559;DHT22;21661;50.794;-1.066;2024-01-06T11:30:38;7.70;99.90
35559;DHT22;21661;50.794;-1.066;2024-01-06T11:33:04;7.70;99.90
35559;DHT22;21661;50.794;-1.066;2024-01-06T11:35:30;7.70;99.90
35559;DHT22;21661;50.794;-1.066;2024-01-06T11:38:07;7.70;99.90
35559;DHT22;21661;50.794;-1.066;2024-01-06T11:40:34;7.70;99.90
35559;DHT22;21661;50.794;-1.066;2024-01-06T11:43:11;7.70;99.90
35559;DHT22;21661;50.794;-1.066;2024-01-06T11:45:42;7.70;99.90
35559;DHT22;21661;50.794;-1.066;2024-01-06T11:48:09;7.70;99.90
35559;DHT22;21661;50.794;-1.066;2024-01-06T11:50:39;7.70;99.90
35559;DHT22;21661;50.794;-1.066;2024-01-06T11:53:06;7.70;99.90
35559;DHT22;21661;50.794;-1.066;2024-01-06T11:55:33;7.50;99.90
35559;DHT22;21661;50.794;-1.066;2024-01-06T11:58:00;7.70;99.90
35559;DHT22;21661;50.794;-1.066;2024-01-06T12:00:29;7.70;99.90
35559;DHT22;21661;50.794;-1.066;2024-01-06T12:02:58;7.70;99.90
35559;DHT22;21661;50.794;-1.066;2024-01-06T12:05:24;7.80;99.90
35559;DHT22;21661;50.794;-1.066;2024-01-06T12:07:56;7.70;99.90
35559;DHT22;21661;50.794;-1.066;2024-01-06T12:10:22;7.70;99.90
35559;DHT22;21661;50.794;-1.066;2024-01-06T12:13:02;7.80;99.90
35559;DHT22;21661;50.794;-1.066;2024-01-06T12:15:29;7.80;99.90
35559;DHT22;21661;50.794;-1.066;2024-01-06T12:17:56;7.80;99.90
35559;DHT22;21661;50.794;-1.066;2024-01-06T12:20:23;7.80;99.90
35559;DHT22;21661;50.794;-1.066;2024-01-06T12:22:51;7.80;99.90
35559;DHT22;21661;50.794;-1.066;2024-01-06T12:25:17;7.80;99.90
35559;DHT22;21661;50.794;-1.066;2024-01-06T12:27:44;7.80;99.90
35559;DHT22;21661;50.794;-1.066;2024-01-06T12:30:14;7.90;99.90
35559;DHT22;21661;50.794;-1.066;2024-01-06T12:32:43;8.00;99.90
35559;DHT22;21661;50.794;-1.066;2024-01-06T12:35:09;8.10;99.90
35559;DHT22;21661;50.794;-1.066;2024-01-06T12:37:36;8.10;99.90
35559;DHT22;21661;50.794;-1.066;2024-01-06T12:40:02;8.20;99.90
35559;DHT22;21661;50.794;-1.066;2024-01-06T12:42:27;8.20;99.90
35559;DHT22;21661;50.794;-1.066;2024-01-06T12:44:53;8.20;99.90
35559;DHT22;21661;50.794;-1.066;2024-01-06T12:47:19;8.00;99.90
35559;DHT22;21661;50.794;-1.066;2024-01-06T12:49:44;8.00;99.90
35559;DHT22;21661;50.794;-1.066;2024-01-06T12:52:11;8.10;99.90
35559;DHT22;21661;50.794;-1.066;2024-01-06T12:54:38;8.10;99.90
35559;DHT22;21661;50.794;-1.066;2024-01-06T12:57:04;8.00;99.90
35559;DHT22;21661;50.794;-1.066;2024-01-06T12:59:30;8.10;99.90
35559;DHT22;21661;50.794;-1.066;2024-01-06T13:01:56;8.00;99.90
35559;DHT22;21661;50.794;-1.066;2024-01-06T13:04:22;8.00;99.90
35559;DHT22;21661;50.794;-1.066;2024-01-06T13:06:49;8.00;99.90
35559;DHT22;21661;50.794;-1.066;2024-01-06T13:09:15;8.00;99.90
35559;DHT22;21661;50.794;-1.066;2024-01-06T13:11:44;8.00;99.90
35559;DHT22;21661;50.794;-1.066;2024-01-06T13:14:12;8.10;99.90
35559;DHT22;21661;50.794;-1.066;2024-01-06T13:16:38;8.10;99.90
35559;DHT22;21661;50.794;-1.066;2024-01-06T13:19:03;8.10;99.90
35559;DHT22;21661;50.794;-1.066;2024-01-06T13:21:30;8.10;99.90
35559;DHT22;21661;50.794;-1.066;2024-01-06T13:23:56;8.20;99.90
35559;DHT22;21661;50.794;-1.066;2024-01-06T13:26:26;8.20;99.90
35559;DHT22;21661;50.794;-1.066;2024-01-06T13:28:53;8.10;99.90
35559;DHT22;21661;50.794;-1.066;2024-01-06T13:31:19;8.20;99.90
35559;DHT22;21661;50.794;-1.066;2024-01-06T13:33:45;8.30;99.90
35559;DHT22;21661;50.794;-1.066;2024-01-06T13:36:11;8.30;99.90
35559;DHT22;21661;50.794;-1.066;2024-01-06T13:38:37;8.30;99.90
35559;DHT22;21661;50.794;-1.066;2024-01-06T13:41:03;8.40;99.90
35559;DHT22;21661;50.794;-1.066;2024-01-06T13:43:29;8.50;99.90
35559;DHT22;21661;50.794;-1.066;2024-01-06T13:45:55;8.60;99.90
35559;DHT22;21661;50.794;-1.066;2024-01-06T13:48:21;8.60;99.90
35559;DHT22;21661;50.794;-1.066;2024-01-06T13:50:47;8.60;99.90
35559;DHT22;21661;50.794;-1.066;2024-01-06T13:53:13;8.50;99.90
35559;DHT22;21661;50.794;-1.066;2024-01-06T13:55:39;8.50;99.90
35559;DHT22;21661;50.794;-1.066;2024-01-06T13:58:05;8.50;99.90
35559;DHT22;21661;50.794;-1.066;2024-01-06T14:00:30;8.60;99.90
35559;DHT22;21661;50.794;-1.066;2024-01-06T14:02:56;8.40;99.90
35559;DHT22;21661;50.794;-1.066;2024-01-06T14:05:22;8.50;99.90
35559;DHT22;21661;50.794;-1.066;2024-01-06T14:07:49;8.40;99.90
35559;DHT22;21661;50.794;-1.066;2024-01-06T14:10:16;8.40;99.90
35559;DHT22;21661;50.794;-1.066;2024-01-06T14:12:42;8.40;99.90
35559;DHT22;21661;50.794;-1.066;2024-01-06T14:15:08;8.50;99.90
35559;DHT22;21661;50.794;-1.066;2024-01-06T14:17:34;8.40;99.90
35559;DHT22;21661;50.794;-1.066;2024-01-06T14:20:00;8.40;99.90
35559;DHT22;21661;50.794;-1.066;2024-01-06T14:22:27;8.40;99.90
35559;DHT22;21661;50.794;-1.066;2024-01-06T14:24:52;8.40;99.90
35559;DHT22;21661;50.794;-1.066;2024-01-06T14:27:18;8.40;99.90
35559;DHT22;21661;50.794;-1.066;2024-01-06T14:29:44;8.50;99.90
35559;DHT22;21661;50.794;-1.066;2024-01-06T14:32:10;8.40;99.90
35559;DHT22;21661;50.794;-1.066;2024-01-06T14:34:36;8.40;99.90
35559;DHT22;21661;50.794;-1.066;2024-01-06T14:37:02;8.40;99.90
35559;DHT22;21661;50.794;-1.066;2024-01-06T14:39:28;8.30;99.90
35559;DHT22;21661;50.794;-1.066;2024-01-06T14:41:53;8.30;99.90
35559;DHT22;21661;50.794;-1.066;2024-01-06T14:44:19;8.20;99.90
35559;DHT22;21661;50.794;-1.066;2024-01-06T14:46:48;8.20;99.90
35559;DHT22;21661;50.794;-1.066;2024-01-06T14:49:13;8.30;99.90
35559;DHT22;21661;50.794;-1.066;2024-01-06T14:51:39;8.20;99.90
35559;DHT22;21661;50.794;-1.066;2024-01-06T14:54:05;8.10;99.90
35559;DHT22;21661;50.794;-1.066;2024-01-06T14:56:32;8.00;99.90
35559;DHT22;21661;50.794;-1.066;2024-01-06T14:58:58;8.00;99.90
35559;DHT22;21661;50.794;-1.066;2024-01-06T15:01:23;8.00;99.90
35559;DHT22;21661;50.794;-1.066;2024-01-06T15:03:49;8.00;99.90
35559;DHT22;21661;50.794;-1.066;2024-01-06T15:06:15;8.00;99.90
35559;DHT22;21661;50.794;-1.066;2024-01-06T15:08:42;8.00;99.90
35559;DHT22;21661;50.794;-1.066;2024-01-06T15:11:08;8.00;99.90
35559;DHT22;21661;50.794;-1.066;2024-01-06T15:13:34;8.00;99.90
35559;DHT22;21661;50.794;-1.066;2024-01-06T15:16:01;8.00;99.90
35559;DHT22;21661;50.794;-1.066;2024-01-06T15:18:27;7.90;99.90
35559;DHT22;21661;50.794;-1.066;2024-01-06T15:20:53;7.80;99.90
35559;DHT22;21661;50.794;-1.066;2024-01-06T15:23:19;7.80;99.90
35559;DHT22;21661;50.794;-1.066;2024-01-06T15:25:45;7.80;99.90